createdAt,value
2017-09-26T00:01:31.416Z,28.10
2017-09-26T00:03:58.076Z,17.50
2017-09-26T00:06:24.714Z,17.80
2017-09-26T00:08:51.350Z,20.60
2017-09-26T00:11:17.979Z,34.40
2017-09-26T00:13:44.619Z,25.07
2017-09-26T00:16:11.227Z,23.87
2017-09-26T00:18:37.842Z,28.83
2017-09-26T00:21:04.495Z,34.90
2017-09-26T00:23:31.116Z,38.03
2017-09-26T00:25:57.785Z,22.50
2017-09-26T00:28:24.427Z,19.00
2017-09-26T00:30:51.072Z,22.87
2017-09-26T00:33:17.711Z,25.10
2017-09-26T00:35:44.372Z,21.13
2017-09-26T00:38:12.580Z,34.20
2017-09-26T00:40:39.224Z,38.33
2017-09-26T00:43:05.846Z,36.87
2017-09-26T00:45:32.498Z,34.60
2017-09-26T00:47:59.112Z,26.87
2017-09-26T00:50:25.732Z,25.90
2017-09-26T00:52:52.366Z,30.13
2017-09-26T00:55:18.978Z,39.50
2017-09-26T00:57:45.627Z,37.33
2017-09-26T01:00:12.240Z,57.97
2017-09-26T01:02:38.890Z,29.10
2017-09-26T01:05:17.364Z,28.77
2017-09-26T01:07:43.995Z,36.53
2017-09-26T01:10:10.620Z,32.90
2017-09-26T01:12:37.233Z,35.00
2017-09-26T01:15:03.895Z,32.07
2017-09-26T01:17:30.531Z,37.70
2017-09-26T01:19:57.162Z,33.40
2017-09-26T01:22:23.798Z,41.40
2017-09-26T01:24:50.415Z,42.60
2017-09-26T01:27:17.048Z,43.23
2017-09-26T01:29:43.698Z,43.33
2017-09-26T01:32:10.347Z,48.87
2017-09-26T01:34:36.985Z,48.67
2017-09-26T01:37:03.626Z,44.23
2017-09-26T01:39:30.273Z,44.20
2017-09-26T01:41:56.885Z,46.17
2017-09-26T01:44:23.535Z,45.63
2017-09-26T01:46:50.167Z,43.23
2017-09-26T01:49:16.791Z,42.70
2017-09-26T01:51:43.423Z,44.67
2017-09-26T01:54:10.050Z,41.80
2017-09-26T01:56:50.409Z,42.90
2017-09-26T01:59:19.548Z,47.37
2017-09-26T02:01:46.189Z,40.47
2017-09-26T02:04:12.847Z,44.50
2017-09-26T02:06:39.479Z,39.03
2017-09-26T02:09:06.137Z,50.60
2017-09-26T02:11:32.751Z,56.27
2017-09-26T02:13:59.422Z,47.37
2017-09-26T02:16:26.071Z,41.40
2017-09-26T02:18:52.690Z,42.03
2017-09-26T02:21:19.311Z,44.33
2017-09-26T02:23:45.934Z,38.23
2017-09-26T02:26:12.559Z,42.40
2017-09-26T02:28:39.179Z,38.67
2017-09-26T02:31:05.786Z,38.50
2017-09-26T02:33:32.428Z,44.73
2017-09-26T02:35:59.066Z,37.83
2017-09-26T02:38:25.700Z,40.83
2017-09-26T02:40:52.354Z,45.73
2017-09-26T02:43:18.976Z,43.50
2017-09-26T02:45:45.615Z,46.43
2017-09-26T02:48:12.243Z,49.43
2017-09-26T02:50:38.859Z,46.47
2017-09-26T02:53:05.522Z,45.87
2017-09-26T02:55:32.185Z,51.33
2017-09-26T02:57:58.843Z,50.47
2017-09-26T03:00:25.472Z,41.87
2017-09-26T03:02:52.099Z,52.37
2017-09-26T03:05:18.719Z,56.77
2017-09-26T03:07:45.353Z,51.10
2017-09-26T03:10:11.998Z,48.67
2017-09-26T03:12:38.640Z,53.83
2017-09-26T03:15:05.282Z,51.70
2017-09-26T03:17:31.930Z,50.13
2017-09-26T03:19:58.550Z,44.27
2017-09-26T03:22:25.175Z,45.60
2017-09-26T03:24:51.820Z,46.67
2017-09-26T03:27:18.460Z,46.23
2017-09-26T03:29:45.092Z,41.83
2017-09-26T03:32:12.073Z,43.97
2017-09-26T03:34:38.704Z,46.10
2017-09-26T03:37:05.352Z,51.07
2017-09-26T03:39:31.981Z,50.90
2017-09-26T03:41:58.599Z,44.80
2017-09-26T03:44:25.221Z,48.37
2017-09-26T03:46:51.857Z,49.67
2017-09-26T03:49:18.664Z,47.07
2017-09-26T03:51:45.292Z,47.00
2017-09-26T03:54:11.926Z,43.93
2017-09-26T03:56:38.568Z,43.87
2017-09-26T03:59:05.212Z,47.70
2017-09-26T04:01:31.862Z,51.70
2017-09-26T04:03:58.510Z,50.23
2017-09-26T04:06:25.144Z,50.33
2017-09-26T04:08:51.779Z,48.27
2017-09-26T04:11:18.410Z,45.13
2017-09-26T04:13:45.045Z,43.70
2017-09-26T04:16:11.672Z,69.07
2017-09-26T04:18:38.330Z,45.80
2017-09-26T04:21:04.975Z,49.87
2017-09-26T04:23:31.591Z,48.20
2017-09-26T04:25:58.219Z,41.73
2017-09-26T04:28:24.838Z,47.07
2017-09-26T04:30:51.465Z,48.17
2017-09-26T04:33:18.094Z,50.33
2017-09-26T04:35:44.708Z,59.67
2017-09-26T04:38:11.355Z,48.00
2017-09-26T04:40:37.998Z,51.30
2017-09-26T04:43:04.642Z,55.03
2017-09-26T04:45:31.258Z,50.70
2017-09-26T04:47:57.892Z,50.93
2017-09-26T04:50:24.535Z,49.97
2017-09-26T04:52:51.147Z,45.90
2017-09-26T04:55:17.815Z,56.10
2017-09-26T04:57:44.440Z,52.47
2017-09-26T05:00:11.070Z,56.87
2017-09-26T05:02:37.721Z,51.60
2017-09-26T05:05:04.348Z,44.67
2017-09-26T05:07:30.973Z,47.03
2017-09-26T05:09:57.629Z,46.70
2017-09-26T05:12:24.279Z,53.77
2017-09-26T05:14:50.895Z,45.13
2017-09-26T05:17:17.529Z,48.27
2017-09-26T05:19:44.179Z,46.63
2017-09-26T05:22:10.792Z,57.30
2017-09-26T05:24:37.443Z,55.50
2017-09-26T05:27:04.086Z,48.70
2017-09-26T05:29:30.694Z,49.20
2017-09-26T05:31:57.354Z,53.67
2017-09-26T05:34:23.981Z,45.47
2017-09-26T05:36:50.636Z,49.57
2017-09-26T05:39:17.244Z,50.37
2017-09-26T05:41:43.874Z,46.17
2017-09-26T05:44:10.530Z,51.57
2017-09-26T05:46:37.176Z,46.83
2017-09-26T05:49:03.827Z,50.60
2017-09-26T05:51:30.446Z,49.73
2017-09-26T05:53:57.066Z,56.50
2017-09-26T05:56:23.735Z,52.53
2017-09-26T05:58:50.346Z,49.50
2017-09-26T06:01:16.988Z,53.80
2017-09-26T06:03:43.609Z,56.60
2017-09-26T06:06:10.238Z,43.70
2017-09-26T06:08:36.873Z,44.33
2017-09-26T06:11:03.514Z,45.03
2017-09-26T06:13:30.130Z,51.33
2017-09-26T06:15:56.748Z,42.50
2017-09-26T06:18:23.390Z,49.13
2017-09-26T06:20:50.026Z,45.67
2017-09-26T06:23:16.671Z,53.07
2017-09-26T06:25:43.299Z,39.60
2017-09-26T06:28:09.938Z,41.70
2017-09-26T06:30:36.567Z,50.70
2017-09-26T06:33:03.188Z,41.20
2017-09-26T06:35:29.868Z,40.43
2017-09-26T06:37:56.491Z,47.33
2017-09-26T06:40:23.139Z,46.33
2017-09-26T06:42:49.761Z,46.03
2017-09-26T06:45:16.387Z,43.67
2017-09-26T06:47:43.001Z,47.40
2017-09-26T06:50:09.651Z,49.43
2017-09-26T06:52:36.310Z,47.40
2017-09-26T06:55:02.948Z,53.93
2017-09-26T06:57:29.608Z,58.83
2017-09-26T06:59:56.214Z,54.10
2017-09-26T07:02:22.831Z,47.80
2017-09-26T07:04:49.483Z,50.43
2017-09-26T07:07:16.110Z,51.63
2017-09-26T07:09:42.743Z,49.90
2017-09-26T07:12:09.359Z,45.60
2017-09-26T07:14:36.030Z,47.60
2017-09-26T07:17:02.659Z,41.77
2017-09-26T07:19:29.307Z,43.10
2017-09-26T07:21:55.950Z,56.73
2017-09-26T07:24:22.566Z,54.70
2017-09-26T07:26:49.223Z,44.00
2017-09-26T07:29:15.859Z,50.27
2017-09-26T07:31:42.507Z,49.37
2017-09-26T07:34:09.143Z,43.87
2017-09-26T07:36:35.780Z,42.00
2017-09-26T07:39:02.435Z,42.40
2017-09-26T07:41:29.068Z,47.90
2017-09-26T07:43:55.699Z,38.57
2017-09-26T07:46:22.338Z,43.50
2017-09-26T07:48:48.990Z,43.33
2017-09-26T07:51:15.615Z,44.33
2017-09-26T07:53:42.239Z,36.33
2017-09-26T07:56:08.871Z,50.40
2017-09-26T07:58:35.501Z,40.90
2017-09-26T08:01:02.690Z,41.53
2017-09-26T08:03:29.919Z,38.13
2017-09-26T08:05:57.195Z,43.10
2017-09-26T08:08:24.438Z,44.57
2017-09-26T08:10:51.074Z,49.00
2017-09-26T08:13:17.689Z,44.13
2017-09-26T08:15:44.320Z,51.47
2017-09-26T08:18:10.979Z,47.87
2017-09-26T08:20:37.601Z,41.07
2017-09-26T08:23:04.218Z,40.60
2017-09-26T08:25:30.850Z,41.37
2017-09-26T08:27:57.512Z,45.90
2017-09-26T08:30:24.140Z,43.63
2017-09-26T08:32:50.776Z,45.10
2017-09-26T08:35:17.398Z,41.80
2017-09-26T08:37:44.018Z,42.67
2017-09-26T08:40:10.660Z,42.03
2017-09-26T08:42:37.298Z,44.00
2017-09-26T08:45:03.930Z,39.30
2017-09-26T08:47:30.630Z,44.10
2017-09-26T08:49:57.272Z,40.27
2017-09-26T08:52:23.903Z,39.10
2017-09-26T08:54:50.525Z,39.30
2017-09-26T08:57:17.167Z,41.23
2017-09-26T08:59:43.779Z,42.53
2017-09-26T09:02:10.409Z,43.67
2017-09-26T09:04:37.061Z,38.57
2017-09-26T09:07:03.670Z,52.77
2017-09-26T09:09:30.336Z,38.97
2017-09-26T09:11:56.950Z,49.50
2017-09-26T09:14:23.603Z,42.50
2017-09-26T09:16:50.229Z,43.50
2017-09-26T09:19:16.863Z,42.30
2017-09-26T09:21:43.509Z,39.40
2017-09-26T09:24:10.136Z,43.70
2017-09-26T09:26:36.787Z,39.57
2017-09-26T09:29:03.427Z,39.83
2017-09-26T09:31:30.111Z,40.13
2017-09-26T09:33:56.775Z,42.10
2017-09-26T09:36:23.391Z,38.93
2017-09-26T09:38:50.017Z,46.07
2017-09-26T09:41:16.664Z,43.57
2017-09-26T09:43:43.294Z,45.37
2017-09-26T09:46:09.918Z,40.90
2017-09-26T09:48:36.595Z,36.00
2017-09-26T09:51:03.255Z,42.53
2017-09-26T09:53:29.891Z,31.63
2017-09-26T09:55:56.629Z,40.33
2017-09-26T09:58:23.307Z,39.10
2017-09-26T10:00:49.950Z,36.57
2017-09-26T10:03:16.611Z,47.10
2017-09-26T10:05:43.263Z,35.07
2017-09-26T10:08:09.878Z,36.27
2017-09-26T10:10:36.523Z,38.03
2017-09-26T10:13:03.159Z,31.33
2017-09-26T10:15:29.799Z,32.37
2017-09-26T10:17:56.455Z,34.53
2017-09-26T10:20:23.100Z,34.50
2017-09-26T10:22:49.749Z,35.40
2017-09-26T10:25:16.380Z,49.17
2017-09-26T10:27:43.038Z,36.10
2017-09-26T10:30:09.660Z,36.67
2017-09-26T10:32:36.307Z,36.77
2017-09-26T10:35:02.959Z,36.03
2017-09-26T10:37:29.573Z,30.90
2017-09-26T10:39:56.230Z,32.80
2017-09-26T10:42:22.846Z,29.40
2017-09-26T10:44:49.470Z,32.47
2017-09-26T10:47:16.122Z,32.93
2017-09-26T10:49:42.802Z,33.43
2017-09-26T10:52:09.448Z,34.43
2017-09-26T10:54:36.090Z,33.70
2017-09-26T10:57:02.714Z,37.23
2017-09-26T10:59:29.356Z,33.43
2017-09-26T11:01:55.971Z,32.20
2017-09-26T11:04:22.613Z,33.90
2017-09-26T11:06:49.266Z,34.60
2017-09-26T11:09:15.890Z,28.93
2017-09-26T11:11:42.535Z,30.43
2017-09-26T11:14:09.190Z,31.23
2017-09-26T11:16:35.910Z,30.63
2017-09-26T11:19:02.531Z,29.97
2017-09-26T11:21:29.158Z,26.40
2017-09-26T11:23:55.805Z,35.20
2017-09-26T11:26:22.448Z,31.20
2017-09-26T11:28:49.107Z,30.73
2017-09-26T11:31:15.735Z,26.13
2017-09-26T11:33:42.391Z,27.57
2017-09-26T11:36:09.011Z,31.30
2017-09-26T11:38:35.643Z,24.57
2017-09-26T11:41:02.267Z,26.57
2017-09-26T11:43:28.887Z,28.47
2017-09-26T11:45:55.527Z,23.80
2017-09-26T11:48:22.169Z,29.10
2017-09-26T11:50:48.808Z,21.77
2017-09-26T11:53:15.448Z,20.90
2017-09-26T11:55:42.080Z,26.60
2017-09-26T11:58:08.703Z,21.10
2017-09-26T12:00:35.358Z,22.30
2017-09-26T12:03:02.001Z,27.20
2017-09-26T12:05:28.639Z,18.70
2017-09-26T12:07:55.267Z,20.97
2017-09-26T12:10:21.923Z,22.20
2017-09-26T12:12:54.330Z,21.87
2017-09-26T12:15:20.979Z,18.80
2017-09-26T12:17:47.634Z,17.83
2017-09-26T12:20:14.277Z,21.40
2017-09-26T12:22:40.911Z,18.17
2017-09-26T12:25:07.540Z,25.40
2017-09-26T12:27:34.174Z,30.67
2017-09-26T12:30:00.807Z,17.17
2017-09-26T12:32:27.442Z,20.47
2017-09-26T12:34:54.059Z,19.63
2017-09-26T12:37:20.711Z,23.17
2017-09-26T12:39:47.339Z,20.93
2017-09-26T12:42:13.999Z,25.63
2017-09-26T12:44:40.646Z,20.00
2017-09-26T12:47:07.268Z,20.07
2017-09-26T12:49:33.928Z,17.83
2017-09-26T12:52:00.550Z,21.57
2017-09-26T12:54:30.979Z,26.43
2017-09-26T12:56:57.731Z,27.00
2017-09-26T12:59:24.355Z,21.13
2017-09-26T13:01:50.986Z,21.20
2017-09-26T13:04:17.601Z,22.57
2017-09-26T13:06:44.225Z,22.20
2017-09-26T13:09:10.890Z,21.17
2017-09-26T13:11:37.502Z,19.13
2017-09-26T13:14:04.143Z,18.87
2017-09-26T13:16:30.791Z,18.10
2017-09-26T13:18:57.422Z,17.77
2017-09-26T13:21:24.074Z,22.80
2017-09-26T13:23:50.715Z,20.97
2017-09-26T13:26:17.362Z,23.17
2017-09-26T13:28:44.008Z,18.90
2017-09-26T13:31:10.655Z,22.63
2017-09-26T13:33:37.279Z,19.17
2017-09-26T13:36:03.922Z,19.90
2017-09-26T13:38:30.551Z,23.77
2017-09-26T13:40:57.179Z,19.30
2017-09-26T13:43:23.806Z,22.10
2017-09-26T13:45:50.450Z,21.10
2017-09-26T13:48:17.116Z,19.70
2017-09-26T13:50:43.727Z,21.30
2017-09-26T13:53:10.372Z,20.60
2017-09-26T13:55:37.003Z,22.83
2017-09-26T13:58:03.737Z,18.57
2017-09-26T14:00:30.365Z,24.07
2017-09-26T14:02:57.034Z,19.13
2017-09-26T14:05:23.635Z,19.03
2017-09-26T14:07:50.278Z,20.57
2017-09-26T14:10:16.898Z,21.90
2017-09-26T14:12:43.527Z,19.53
2017-09-26T14:15:10.146Z,21.90
2017-09-26T14:17:36.779Z,15.50
2017-09-26T14:20:03.400Z,15.47
2017-09-26T14:22:30.022Z,18.23
2017-09-26T14:24:56.655Z,23.67
2017-09-26T14:27:23.319Z,18.37
2017-09-26T14:29:49.971Z,20.23
2017-09-26T14:32:16.617Z,17.83
2017-09-26T14:34:43.276Z,18.33
2017-09-26T14:37:09.919Z,15.03
2017-09-26T14:39:36.563Z,17.83
2017-09-26T14:42:03.183Z,19.80
2017-09-26T14:44:29.819Z,19.20
2017-09-26T14:46:56.461Z,20.73
2017-09-26T14:49:23.081Z,24.40
2017-09-26T14:51:49.731Z,18.70
2017-09-26T14:54:16.368Z,22.53
2017-09-26T14:56:43.019Z,18.50
2017-09-26T14:59:09.654Z,18.70
2017-09-26T15:01:36.326Z,15.57
2017-09-26T15:04:02.950Z,17.30
2017-09-26T15:06:29.603Z,21.73
2017-09-26T15:08:56.240Z,16.90
2017-09-26T15:11:22.856Z,14.60
2017-09-26T15:13:49.496Z,15.47
2017-09-26T15:16:16.157Z,15.40
2017-09-26T15:18:42.788Z,23.13
2017-09-26T15:21:09.431Z,18.33
2017-09-26T15:23:36.043Z,13.43
2017-09-26T15:26:02.707Z,14.97
2017-09-26T15:28:29.363Z,16.27
2017-09-26T15:30:55.974Z,15.33
2017-09-26T15:33:22.575Z,11.70
2017-09-26T15:35:49.223Z,17.53
2017-09-26T15:38:15.866Z,13.90
2017-09-26T15:40:42.519Z,13.97
2017-09-26T15:43:09.128Z,10.33
2017-09-26T15:45:35.787Z,10.20
2017-09-26T15:48:02.404Z,8.00
2017-09-26T15:50:29.015Z,8.37
2017-09-26T15:52:55.659Z,7.47
2017-09-26T15:55:22.279Z,6.60
2017-09-26T15:57:48.921Z,8.57
2017-09-26T16:00:15.534Z,8.30
2017-09-26T16:02:42.148Z,6.60
2017-09-26T16:05:08.816Z,8.53
2017-09-26T16:07:35.428Z,10.20
2017-09-26T16:10:02.052Z,7.00
2017-09-26T16:12:28.710Z,6.17
2017-09-26T16:14:55.364Z,7.57
2017-09-26T16:17:21.994Z,6.23
2017-09-26T16:19:48.643Z,8.10
2017-09-26T16:22:15.293Z,6.00
2017-09-26T16:24:41.909Z,8.57
2017-09-26T16:27:08.548Z,5.07
2017-09-26T16:29:35.187Z,6.37
2017-09-26T16:32:01.807Z,4.10
2017-09-26T16:34:28.440Z,4.10
2017-09-26T16:36:55.082Z,6.30
2017-09-26T16:39:21.706Z,5.67
2017-09-26T16:41:48.352Z,4.67
2017-09-26T16:44:15.009Z,6.47
2017-09-26T16:46:41.635Z,5.13
2017-09-26T16:49:08.271Z,6.63
2017-09-26T16:51:34.898Z,4.07
2017-09-26T16:54:01.528Z,4.40
2017-09-26T16:56:28.134Z,4.70
2017-09-26T16:58:54.772Z,4.47
2017-09-26T17:01:21.384Z,6.87
2017-09-26T17:03:48.020Z,7.67
2017-09-26T17:06:14.648Z,5.53
2017-09-26T17:08:41.279Z,5.10
2017-09-26T17:11:07.931Z,6.73
2017-09-26T17:13:34.580Z,6.20
2017-09-26T17:16:01.235Z,6.10
2017-09-26T17:18:27.889Z,7.93
2017-09-26T17:20:54.521Z,10.37
2017-09-26T17:23:21.129Z,8.90
2017-09-26T17:25:47.761Z,8.30
2017-09-26T17:28:14.401Z,9.10
2017-09-26T17:30:41.065Z,7.10
2017-09-26T17:33:07.694Z,5.67
2017-09-26T17:35:34.356Z,6.47
2017-09-26T17:38:00.974Z,8.77
2017-09-26T17:40:27.608Z,11.13
2017-09-26T17:42:54.240Z,7.07
2017-09-26T17:45:20.873Z,7.60
2017-09-26T17:47:47.500Z,7.23
2017-09-26T17:50:14.139Z,8.23
2017-09-26T17:52:40.760Z,9.47
2017-09-26T17:55:07.438Z,9.37
2017-09-26T17:57:34.050Z,5.67
2017-09-26T18:00:00.729Z,5.07
2017-09-26T18:02:27.366Z,7.40
2017-09-26T18:04:53.995Z,10.70
2017-09-26T18:07:20.650Z,9.80
2017-09-26T18:09:47.318Z,11.23
2017-09-26T18:12:13.981Z,7.03
2017-09-26T18:14:41.560Z,8.50
2017-09-26T18:17:08.179Z,7.50
2017-09-26T18:19:34.792Z,5.90
2017-09-26T18:22:01.429Z,8.50
2017-09-26T18:24:28.076Z,9.63
2017-09-26T18:26:54.694Z,5.03
2017-09-26T18:29:21.320Z,5.10
2017-09-26T18:31:47.969Z,4.80
2017-09-26T18:34:14.588Z,7.90
2017-09-26T18:36:41.203Z,5.50
2017-09-26T18:39:07.825Z,8.10
2017-09-26T18:41:34.501Z,7.27
2017-09-26T18:44:02.012Z,5.13
2017-09-26T18:46:28.629Z,5.97
2017-09-26T18:48:55.282Z,6.20
2017-09-26T18:51:21.896Z,9.73
2017-09-26T18:53:48.531Z,5.80
2017-09-26T18:56:15.161Z,6.50
2017-09-26T18:58:41.775Z,8.90
2017-09-26T19:01:08.428Z,8.43
2017-09-26T19:03:35.056Z,6.50
2017-09-26T19:06:01.666Z,6.73
2017-09-26T19:08:28.319Z,9.50
2017-09-26T19:10:54.938Z,9.43
2017-09-26T19:13:21.581Z,11.57
2017-09-26T19:15:48.216Z,10.27
2017-09-26T19:18:14.891Z,9.10
2017-09-26T19:20:41.508Z,12.23
2017-09-26T19:23:08.128Z,9.90
2017-09-26T19:25:34.769Z,10.97
2017-09-26T19:28:01.383Z,8.27
2017-09-26T19:30:28.032Z,7.90
2017-09-26T19:32:54.656Z,8.83
2017-09-26T19:35:21.320Z,9.53
2017-09-26T19:37:47.964Z,9.57
2017-09-26T19:40:14.613Z,9.20
2017-09-26T19:42:41.271Z,10.30
2017-09-26T19:45:07.943Z,9.47
2017-09-26T19:47:34.600Z,21.20
2017-09-26T19:50:01.252Z,14.30
2017-09-26T19:52:27.898Z,14.73
2017-09-26T19:54:54.519Z,10.40
2017-09-26T19:57:21.170Z,8.57
2017-09-26T19:59:47.801Z,10.90
2017-09-26T20:02:14.428Z,8.63
2017-09-26T20:04:41.072Z,9.73
2017-09-26T20:07:07.719Z,9.50
2017-09-26T20:09:34.345Z,11.20
2017-09-26T20:12:01.021Z,8.90
2017-09-26T20:14:27.656Z,10.40
2017-09-26T20:16:54.305Z,11.70
2017-09-26T20:19:20.952Z,9.30
2017-09-26T20:21:47.592Z,16.03
2017-09-26T20:24:14.249Z,11.37
2017-09-26T20:26:40.870Z,12.83
2017-09-26T20:29:07.515Z,9.40
2017-09-26T20:31:34.127Z,8.43
2017-09-26T20:34:00.745Z,11.47
2017-09-26T20:36:27.407Z,10.00
2017-09-26T20:38:54.039Z,9.63
2017-09-26T20:41:20.688Z,11.50
2017-09-26T20:43:47.323Z,11.93
2017-09-26T20:46:13.945Z,9.50
2017-09-26T20:48:40.601Z,12.13
2017-09-26T20:51:07.232Z,10.17
2017-09-26T20:53:33.864Z,16.80
2017-09-26T20:56:00.534Z,11.93
2017-09-26T20:58:27.159Z,12.20
2017-09-26T21:00:53.806Z,10.73
2017-09-26T21:03:20.448Z,8.87
2017-09-26T21:05:47.108Z,13.67
2017-09-26T21:08:13.747Z,11.23
2017-09-26T21:10:40.411Z,12.47
2017-09-26T21:13:07.047Z,9.90
2017-09-26T21:15:34.052Z,10.10
2017-09-26T21:18:01.289Z,13.73
2017-09-26T21:20:27.968Z,11.47
2017-09-26T21:22:54.682Z,18.20
2017-09-26T21:25:21.367Z,12.30
2017-09-26T21:27:48.010Z,10.53
2017-09-26T21:30:14.649Z,15.60
2017-09-26T21:32:41.392Z,19.10
2017-09-26T21:35:08.125Z,14.17
2017-09-26T21:37:34.751Z,12.60
2017-09-26T21:40:02.184Z,12.83
2017-09-26T21:42:28.818Z,17.07
2017-09-26T21:44:55.475Z,9.47
2017-09-26T21:47:22.085Z,9.60
2017-09-26T21:49:48.755Z,15.77
2017-09-26T21:52:15.389Z,11.77
2017-09-26T21:54:42.019Z,14.70
2017-09-26T21:57:08.668Z,14.07
2017-09-26T21:59:35.299Z,12.87
2017-09-26T22:02:01.964Z,12.07
2017-09-26T22:04:28.575Z,13.33
2017-09-26T22:06:55.212Z,12.30
2017-09-26T22:09:21.878Z,10.70
2017-09-26T22:11:48.527Z,11.07
2017-09-26T22:14:15.166Z,11.27
2017-09-26T22:16:41.779Z,14.20
2017-09-26T22:19:08.403Z,15.17
2017-09-26T22:21:35.036Z,13.60
2017-09-26T22:24:01.658Z,13.33
2017-09-26T22:26:28.310Z,11.53
2017-09-26T22:28:54.928Z,15.03
2017-09-26T22:31:21.568Z,11.70
2017-09-26T22:33:48.222Z,12.57
2017-09-26T22:36:14.838Z,13.93
2017-09-26T22:38:41.486Z,13.40
2017-09-26T22:41:08.097Z,12.07
2017-09-26T22:43:34.716Z,13.87
2017-09-26T22:46:01.348Z,23.30
2017-09-26T22:48:27.983Z,13.33
2017-09-26T22:50:54.598Z,10.60
2017-09-26T22:53:21.243Z,14.60
2017-09-26T22:55:47.857Z,16.23
2017-09-26T22:58:14.537Z,13.60
2017-09-26T23:00:41.155Z,18.63
2017-09-26T23:03:07.780Z,15.57
2017-09-26T23:05:34.439Z,16.90
2017-09-26T23:08:01.058Z,15.10
2017-09-26T23:10:27.724Z,13.60
2017-09-26T23:12:55.088Z,18.23
2017-09-26T23:15:21.724Z,17.33
2017-09-26T23:17:48.403Z,15.97
2017-09-26T23:20:15.022Z,13.03
2017-09-26T23:22:41.636Z,13.23
2017-09-26T23:25:08.275Z,16.23
2017-09-26T23:27:34.895Z,19.37
2017-09-26T23:30:01.523Z,15.30
2017-09-26T23:32:28.158Z,12.07
2017-09-26T23:34:54.751Z,12.07
2017-09-26T23:37:21.402Z,13.70
2017-09-26T23:39:48.023Z,18.83
2017-09-26T23:42:14.657Z,15.80
2017-09-26T23:44:41.307Z,13.53
2017-09-26T23:47:07.926Z,15.70
2017-09-26T23:49:34.556Z,16.63
2017-09-26T23:52:01.173Z,12.03
2017-09-26T23:54:27.789Z,15.47
2017-09-26T23:56:54.431Z,14.63
2017-09-26T23:59:21.053Z,15.57
